createdAt,value
2023-01-09T00:02:13.623Z,0
2023-01-09T00:07:19.714Z,0
2023-01-09T00:12:25.792Z,0
2023-01-09T00:17:31.882Z,0
2023-01-09T00:22:37.988Z,0
2023-01-09T00:27:43.098Z,0
2023-01-09T00:32:49.178Z,0
2023-01-09T00:37:55.309Z,0
2023-01-09T00:43:01.354Z,0
2023-01-09T00:48:07.461Z,0
2023-01-09T00:53:13.521Z,0
2023-01-09T00:58:19.618Z,0
2023-01-09T01:03:25.708Z,0
2023-01-09T01:08:31.806Z,0
2023-01-09T01:13:37.886Z,0
2023-01-09T01:18:43.007Z,0
2023-01-09T01:23:49.082Z,0
2023-01-09T01:28:55.172Z,0
2023-01-09T01:34:01.261Z,0
2023-01-09T01:39:07.351Z,0
2023-01-09T01:44:13.443Z,0
2023-01-09T01:49:19.522Z,0
2023-01-09T01:54:25.626Z,0
2023-01-09T01:59:31.843Z,0
2023-01-09T02:04:37.919Z,0
2023-01-09T02:09:43.878Z,0
2023-01-09T02:14:49.981Z,0
2023-01-09T02:19:56.089Z,0
2023-01-09T02:25:02.163Z,0
2023-01-09T02:30:08.235Z,0
2023-01-09T02:35:14.323Z,0
2023-01-09T02:40:20.414Z,0
2023-01-09T02:45:26.497Z,0
2023-01-09T02:50:32.639Z,0
2023-01-09T02:55:38.699Z,0
2023-01-09T03:00:43.807Z,0
2023-01-09T03:05:49.902Z,0
2023-01-09T03:10:55.996Z,0
2023-01-09T03:16:02.106Z,0
2023-01-09T03:21:08.218Z,0
2023-01-09T03:26:14.248Z,0
2023-01-09T03:31:20.340Z,0
2023-01-09T03:36:26.475Z,0
2023-01-09T03:41:32.499Z,0
2023-01-09T03:46:38.660Z,0
2023-01-09T03:51:43.704Z,0
2023-01-09T04:01:55.875Z,0
2023-01-09T04:07:02.023Z,0
2023-01-09T04:12:08.054Z,0
2023-01-09T04:17:14.146Z,0
2023-01-09T04:22:20.230Z,0
2023-01-09T04:27:26.320Z,0
2023-01-09T04:32:32.446Z,0
2023-01-09T04:37:38.625Z,0
2023-01-09T04:42:44.627Z,0
2023-01-09T04:47:50.683Z,0
2023-01-09T04:58:02.870Z,0
2023-01-09T05:03:08.953Z,0
2023-01-09T05:08:15.041Z,0
2023-01-09T05:13:21.135Z,0
2023-01-09T05:18:27.235Z,0
2023-01-09T05:23:33.316Z,0
2023-01-09T05:28:38.420Z,0
2023-01-09T05:33:44.510Z,0
2023-01-09T05:38:50.595Z,0
2023-01-09T05:43:56.744Z,0
2023-01-09T05:49:02.782Z,0
2023-01-09T05:54:08.858Z,0
2023-01-09T05:59:14.963Z,0
2023-01-09T06:04:21.044Z,128
2023-01-09T06:09:27.126Z,128
2023-01-09T06:14:33.226Z,124
2023-01-09T06:19:39.319Z,124
2023-01-09T06:24:44.418Z,124
2023-01-09T06:34:56.588Z,124
2023-01-09T06:40:02.708Z,128
2023-01-09T06:45:08.771Z,128
2023-01-09T06:50:14.872Z,124
2023-01-09T06:55:20.952Z,124
2023-01-09T07:00:27.120Z,124
2023-01-09T07:05:33.127Z,124
2023-01-09T07:10:39.295Z,128
2023-01-09T07:15:45.363Z,128
2023-01-09T07:20:51.401Z,128
2023-01-09T07:25:57.496Z,128
2023-01-09T07:31:03.570Z,128
2023-01-09T07:36:09.660Z,132
2023-01-09T07:41:15.861Z,132
2023-01-09T07:46:21.881Z,132
2023-01-09T07:51:27.940Z,136
2023-01-09T07:56:34.028Z,136
2023-01-09T08:01:40.119Z,152
2023-01-09T08:06:46.202Z,168
2023-01-09T08:11:52.353Z,156
2023-01-09T08:16:58.398Z,28
2023-01-09T08:22:04.514Z,40
2023-01-09T08:27:10.572Z,56
2023-01-09T08:32:16.677Z,64
2023-01-09T08:37:22.750Z,80
2023-01-09T08:42:28.831Z,52
2023-01-09T08:47:34.931Z,32
2023-01-09T08:52:41.016Z,28
2023-01-09T08:57:47.103Z,152
2023-01-09T09:02:53.197Z,172
2023-01-09T09:07:59.287Z,136
2023-01-09T09:13:05.405Z,136
2023-01-09T09:18:11.469Z,164
2023-01-09T09:23:17.551Z,144
2023-01-09T09:28:23.639Z,120
2023-01-09T09:33:29.853Z,188
2023-01-09T09:38:35.961Z,168
2023-01-09T09:43:41.149Z,156
2023-01-09T09:48:47.294Z,208
2023-01-09T09:53:53.447Z,188
2023-01-09T09:58:59.598Z,200
2023-01-09T10:04:05.772Z,256
2023-01-09T10:09:11.912Z,172
2023-01-09T10:14:18.064Z,252
2023-01-09T10:19:24.223Z,260
2023-01-09T10:24:30.516Z,204
2023-01-09T10:29:36.682Z,236
2023-01-09T10:34:42.653Z,168
2023-01-09T10:39:48.809Z,188
2023-01-09T10:44:54.978Z,168
2023-01-09T10:50:01.107Z,168
2023-01-09T10:55:07.267Z,196
2023-01-09T11:00:13.568Z,180
2023-01-09T11:05:19.556Z,184
2023-01-09T11:10:25.726Z,200
2023-01-09T11:15:31.869Z,196
2023-01-09T11:20:38.061Z,212
2023-01-09T11:30:50.342Z,192
2023-01-09T11:35:56.469Z,200
2023-01-09T11:41:02.616Z,272
2023-01-09T11:46:08.771Z,236
2023-01-09T11:51:14.917Z,252
2023-01-09T11:56:21.069Z,260
2023-01-09T12:01:27.228Z,288
2023-01-09T12:06:33.379Z,328
2023-01-09T12:11:39.642Z,336
2023-01-09T12:16:44.713Z,296
2023-01-09T12:21:50.775Z,276
2023-01-09T12:26:56.905Z,240
2023-01-09T12:32:02.971Z,232
2023-01-09T12:37:09.057Z,264
2023-01-09T12:42:15.192Z,260
2023-01-09T12:47:21.235Z,260
2023-01-09T12:52:27.324Z,248
2023-01-09T12:57:33.414Z,264
2023-01-09T13:02:39.509Z,268
2023-01-09T13:07:44.593Z,288
2023-01-09T13:12:50.681Z,276
2023-01-09T13:17:56.775Z,244
2023-01-09T13:23:02.868Z,228
2023-01-09T13:28:08.951Z,232
2023-01-09T13:33:15.033Z,228
2023-01-09T13:38:21.129Z,212
2023-01-09T13:43:27.286Z,208
2023-01-09T13:48:33.316Z,200
2023-01-09T13:53:39.403Z,192
2023-01-09T13:58:45.485Z,212
2023-01-09T14:03:51.574Z,200
2023-01-09T14:08:57.663Z,208
2023-01-09T14:14:03.746Z,204
2023-01-09T14:19:08.861Z,188
2023-01-09T14:24:14.941Z,180
2023-01-09T14:29:21.043Z,176
2023-01-09T14:34:27.129Z,184
2023-01-09T14:39:33.222Z,180
2023-01-09T14:44:39.306Z,180
2023-01-09T14:49:45.392Z,180
2023-01-09T14:54:51.477Z,176
2023-01-09T14:59:57.561Z,176
2023-01-09T15:05:03.706Z,172
2023-01-09T15:10:09.871Z,168
2023-01-09T15:15:15.838Z,164
2023-01-09T15:20:21.941Z,160
2023-01-09T15:25:28.120Z,160
2023-01-09T15:30:34.103Z,160
2023-01-09T15:35:40.204Z,160
2023-01-09T15:40:45.305Z,160
2023-01-09T15:45:51.416Z,156
2023-01-09T15:50:57.487Z,160
2023-01-09T15:56:03.563Z,156
2023-01-09T16:01:09.659Z,152
2023-01-09T16:06:15.924Z,152
2023-01-09T16:11:21.827Z,156
2023-01-09T16:16:27.920Z,156
2023-01-09T16:21:34.008Z,156
2023-01-09T16:26:40.111Z,156
2023-01-09T16:31:46.194Z,156
2023-01-09T16:36:52.310Z,156
2023-01-09T16:41:58.368Z,152
2023-01-09T16:47:04.452Z,152
2023-01-09T16:52:09.583Z,156
2023-01-09T16:57:15.650Z,152
2023-01-09T17:02:21.736Z,156
2023-01-09T17:07:27.845Z,156
2023-01-09T17:12:33.925Z,156
2023-01-09T17:17:40.021Z,156
2023-01-09T17:22:46.122Z,156
2023-01-09T17:27:52.187Z,156
2023-01-09T17:32:58.295Z,156
2023-01-09T17:38:04.366Z,156
2023-01-09T17:43:10.453Z,156
2023-01-09T17:48:16.545Z,156
2023-01-09T17:53:22.640Z,156
2023-01-09T17:58:27.748Z,156
2023-01-09T18:03:33.850Z,156
2023-01-09T18:08:39.929Z,156
2023-01-09T18:13:46.012Z,156
2023-01-09T18:18:52.111Z,156
2023-01-09T18:23:58.191Z,156
2023-01-09T18:29:04.329Z,156
2023-01-09T18:34:10.377Z,152
2023-01-09T18:39:16.467Z,152
2023-01-09T18:44:22.558Z,152
2023-01-09T18:49:28.640Z,152
2023-01-09T18:54:34.743Z,152
2023-01-09T18:59:40.824Z,152
2023-01-09T19:04:45.928Z,152
2023-01-09T19:09:52.018Z,148
2023-01-09T19:14:58.105Z,152
2023-01-09T19:20:04.204Z,152
2023-01-09T19:25:10.288Z,148
2023-01-09T19:30:16.391Z,152
2023-01-09T19:35:22.461Z,0
2023-01-09T19:40:27.637Z,0
2023-01-09T19:45:32.696Z,0
2023-01-09T19:50:38.781Z,0
2023-01-09T19:55:44.875Z,0
2023-01-09T20:00:50.950Z,0
2023-01-09T20:05:56.081Z,0
2023-01-09T20:11:02.158Z,0
2023-01-09T20:16:07.275Z,0
2023-01-09T20:21:13.368Z,0
2023-01-09T20:26:19.476Z,0
2023-01-09T20:31:25.533Z,0
2023-01-09T20:36:31.623Z,0
2023-01-09T20:41:37.735Z,0
2023-01-09T20:46:43.947Z,0
2023-01-09T20:51:49.891Z,0
2023-01-09T20:56:56.013Z,0
2023-01-09T21:02:02.199Z,0
2023-01-09T21:07:08.195Z,0
2023-01-09T21:12:14.263Z,0
2023-01-09T21:17:20.352Z,0
2023-01-09T21:22:25.452Z,0
2023-01-09T21:27:31.602Z,0
2023-01-09T21:32:37.669Z,0
2023-01-09T21:37:43.714Z,0
2023-01-09T21:42:49.839Z,0
2023-01-09T21:47:55.910Z,0
2023-01-09T21:53:01.980Z,0
2023-01-09T21:58:08.085Z,0
2023-01-09T22:03:14.174Z,0
2023-01-09T22:08:20.256Z,0
2023-01-09T22:13:26.362Z,0
2023-01-09T22:18:32.447Z,0
2023-01-09T22:23:38.524Z,0
2023-01-09T22:28:44.684Z,0
2023-01-09T22:33:49.723Z,0
2023-01-09T22:38:55.817Z,0
2023-01-09T22:44:01.904Z,0
2023-01-09T22:49:08.115Z,0
2023-01-09T22:54:14.138Z,0
2023-01-09T22:59:20.242Z,0
2023-01-09T23:04:26.297Z,0
2023-01-09T23:09:32.341Z,0
2023-01-09T23:14:37.465Z,0
2023-01-09T23:19:42.564Z,0
2023-01-09T23:24:48.657Z,0
2023-01-09T23:29:54.749Z,0
2023-01-09T23:35:00.834Z,0
2023-01-09T23:40:05.960Z,0
2023-01-09T23:45:12.040Z,0
2023-01-09T23:50:18.127Z,0
2023-01-09T23:55:23.229Z,0
